Time;durP1;ratioP1;P1;durP2;ratioP2;P2;SDS_P1;SDS_P2;PMS_P1;PMS_P2;Temp;Humidity;BMP_temperature;BMP_pressure;BME280_temperature;BME280_humidity;BME280_pressure;Samples;Min_cycle;Max_cycle;Signal;HPM_P1;HPM_P2
2022/09/19 00:01:54;;;;;;;4.17;1.60;;;13.40;80.00;;;16.24;58.36;101112.28;4993081;28;1140287;-56
2022/09/19 00:04:28;;;;;;;4.87;1.67;;;13.40;80.00;;;16.20;58.53;101108.41;5043376;28;20252;-56
2022/09/19 00:06:56;;;;;;;4.53;1.30;;;13.40;80.20;;;16.19;58.57;101111.25;5053918;28;20178;-55
2022/09/19 00:09:28;;;;;;;4.97;1.50;;;13.40;80.20;;;16.16;58.60;101115.13;5053796;28;20190;-57
2022/09/19 00:11:55;;;;;;;3.20;1.70;;;13.30;80.10;;;16.17;59.05;101119.44;5053378;28;20260;-54
2022/09/19 00:14:27;;;;;;;5.03;1.30;;;13.30;80.30;;;16.17;58.89;101124.75;5052007;28;20214;-54
2022/09/19 00:16:57;;;;;;;5.37;1.70;;;13.30;80.30;;;16.17;58.84;101131.88;5053477;28;20236;-57
2022/09/19 00:19:27;;;;;;;4.83;1.87;;;13.30;80.30;;;16.15;59.09;101134.75;5053548;28;20182;-55
2022/09/19 00:21:58;;;;;;;4.13;1.50;;;13.30;80.30;;;16.13;58.56;101128.00;5053456;28;20275;-56
2022/09/19 00:27:15;;;;;;;4.20;1.60;;;13.20;80.50;;;16.08;58.79;101136.56;5053459;28;20239;-54
2022/09/19 00:29:43;;;;;;;2.07;1.73;;;13.20;80.60;;;16.09;59.22;101140.06;5053449;28;20308;-54
2022/09/19 00:32:12;;;;;;;4.57;2.00;;;13.20;80.70;;;16.11;59.22;101138.84;5050347;28;20214;-54
2022/09/19 00:34:47;;;;;;;4.10;2.00;;;13.20;80.80;;;16.09;59.07;101143.50;5052953;28;20196;-55
2022/09/19 00:37:17;;;;;;;4.77;1.60;;;13.20;80.60;;;16.07;59.35;101142.88;5053174;28;20287;-54
2022/09/19 00:39:44;;;;;;;3.43;1.67;;;13.20;80.50;;;16.05;59.21;101136.97;5053113;28;20220;-54
2022/09/19 00:42:17;;;;;;;6.67;1.50;;;13.20;80.60;;;16.03;59.04;101136.34;5052721;28;20245;-55
2022/09/19 00:44:55;;;;;;;2.47;1.23;;;13.20;80.70;;;16.01;59.35;101143.72;5053161;28;20190;-52
2022/09/19 00:47:33;;;;;;;3.50;1.50;;;13.20;80.80;;;16.00;59.31;101144.72;5051539;28;20191;-54
2022/09/19 00:50:10;;;;;;;6.30;1.53;;;13.20;81.60;;;15.98;59.24;101143.28;5052870;28;20174;-54
2022/09/19 00:52:46;;;;;;;4.27;1.60;;;13.10;80.80;;;15.98;59.29;101141.44;5053178;28;20645;-54
2022/09/19 00:55:13;;;;;;;6.10;1.43;;;13.10;80.90;;;15.99;59.31;101145.75;5054989;28;20688;-57
2022/09/19 00:57:55;;;;;;;3.10;1.50;;;13.10;81.00;;;15.96;59.00;101148.78;5054905;28;20240;-54
2022/09/19 01:00:23;;;;;;;3.67;1.40;;;13.10;81.00;;;15.97;59.09;101147.78;5052274;28;20194;-57
2022/09/19 01:02:51;;;;;;;3.47;1.17;;;13.10;81.00;;;15.97;59.20;101153.09;5052291;28;20244;-57
2022/09/19 01:05:35;;;;;;;2.07;1.20;;;13.10;81.20;;;15.93;59.28;101159.81;5032571;28;20206;-54
2022/09/19 01:08:30;;;;;;;3.73;1.20;;;13.10;81.30;;;15.92;59.50;101163.50;5032573;28;20191;-55
2022/09/19 01:11:37;;;;;;;3.07;1.00;;;13.10;81.60;;;15.89;59.79;101161.22;5032424;28;20270;-56
2022/09/19 01:14:25;;;;;;;2.80;0.93;;;13.10;81.50;;;15.90;59.72;101162.84;5032385;28;20193;-56
2022/09/19 01:17:06;;;;;;;5.23;1.47;;;13.10;81.50;;;15.93;59.58;101164.28;5032405;28;20253;-55
2022/09/19 01:20:13;;;;;;;2.10;1.00;;;13.10;81.60;;;15.87;59.79;101165.91;5049481;28;20193;-56
2022/09/19 01:23:03;;;;;;;3.93;1.50;;;13.10;81.70;;;15.91;59.78;101161.84;5051824;28;20229;-57
2022/09/19 01:25:45;;;;;;;3.37;1.20;;;13.10;81.90;;;15.95;59.77;101168.38;5052200;28;20236;-54
2022/09/19 01:28:24;;;;;;;5.67;1.30;;;13.10;81.90;;;16.00;60.27;101173.91;5052259;28;20227;-55
2022/09/19 01:31:18;;;;;;;3.23;1.20;;;13.10;82.30;;;16.07;60.23;101163.31;5051882;28;20189;-55
2022/09/19 01:33:56;;;;;;;4.77;1.40;;;13.10;82.40;;;16.15;59.91;101171.13;5052448;28;20218;-54
2022/09/19 01:36:31;;;;;;;1.83;1.10;;;13.20;82.40;;;16.22;60.22;101177.25;5033357;28;20190;-54
2022/09/19 01:39:02;;;;;;;2.53;1.30;;;13.20;82.30;;;16.26;59.92;101184.63;5032272;28;20201;-54
2022/09/19 01:41:30;;;;;;;5.30;1.30;;;13.30;82.30;;;16.31;59.66;101188.53;5031839;28;20195;-54
2022/09/19 01:44:08;;;;;;;3.97;1.20;;;13.30;82.30;;;16.33;59.33;101191.81;5032196;28;20194;-53
2022/09/19 01:46:52;;;;;;;6.23;1.57;;;13.30;82.30;;;16.31;59.76;101191.19;5043573;28;20507;-56
2022/09/19 01:49:40;;;;;;;3.97;1.27;;;13.40;82.40;;;16.33;59.92;101194.47;5052443;28;20259;-53
2022/09/19 01:52:21;;;;;;;3.67;1.37;;;13.40;83.10;;;16.35;59.63;101192.41;5051765;28;20206;-56
2022/09/19 01:55:02;;;;;;;4.07;1.33;;;13.40;82.40;;;16.38;59.69;101197.34;5051876;28;20712;-54
2022/09/19 01:57:45;;;;;;;1.87;1.30;;;13.40;82.40;;;16.40;59.72;101208.59;5051963;28;20200;-54
2022/09/19 02:00:18;;;;;;;2.00;1.13;;;13.40;82.50;;;16.43;59.84;101201.00;5047809;28;20240;-54
2022/09/19 02:03:06;;;;;;;2.60;1.10;;;13.50;82.70;;;16.46;59.85;101199.78;5031659;28;20300;-56
2022/09/19 02:05:43;;;;;;;1.73;1.20;;;13.50;83.00;;;16.50;59.86;101203.69;5032302;28;20198;-54
2022/09/19 02:08:23;;;;;;;2.63;1.00;;;13.50;82.90;;;16.53;59.96;101205.97;5031974;28;20593;-54
2022/09/19 02:10:56;;;;;;;7.43;2.90;;;13.60;83.10;;;16.59;59.89;101210.50;5031656;28;20193;-56
2022/09/19 02:13:27;;;;;;;5.73;1.77;;;13.60;83.10;;;16.64;60.16;101213.38;5032059;28;20261;-52
2022/09/19 02:16:02;;;;;;;2.50;1.03;;;13.60;83.00;;;16.67;60.11;101215.59;5048364;28;20181;-55
2022/09/19 02:18:37;;;;;;;2.20;1.13;;;13.70;83.10;;;16.72;60.01;101215.81;5030677;28;20658;-55
2022/09/19 02:21:11;;;;;;;3.87;1.30;;;13.70;83.20;;;16.77;60.02;101214.19;5031361;28;20205;-55
2022/09/19 02:23:47;;;;;;;3.30;1.43;;;13.70;83.30;;;16.81;60.22;101206.63;5031774;28;20210;-55
2022/09/19 02:26:21;;;;;;;3.13;1.00;;;13.80;83.40;;;16.85;59.91;101213.97;5031813;28;20209;-55
2022/09/19 02:28:56;;;;;;;3.57;1.10;;;13.80;83.10;;;16.89;60.04;101209.91;5035758;28;20185;-56
2022/09/19 02:31:26;;;;;;;3.53;1.10;;;13.90;83.10;;;16.96;60.13;101223.22;5051563;28;20662;-54
2022/09/19 02:33:58;;;;;;;3.60;1.30;;;13.90;83.20;;;17.02;59.82;101214.41;5051477;28;20224;-53
2022/09/19 02:36:34;;;;;;;2.53;0.90;;;13.90;83.10;;;17.07;59.72;101225.25;5051665;28;20638;-53
2022/09/19 02:39:16;;;;;;;3.00;1.10;;;14.00;83.10;;;17.10;59.86;101230.16;5051803;28;20252;-54
2022/09/19 02:41:56;;;;;;;3.30;1.10;;;14.10;82.90;;;17.12;59.40;101224.63;5051634;28;20684;-55
2022/09/19 02:44:36;;;;;;;3.93;1.23;;;14.10;82.90;;;17.14;59.59;101234.03;5051544;28;20548;-53
2022/09/19 02:47:17;;;;;;;4.67;1.03;;;14.10;82.80;;;17.17;59.79;101224.84;5049807;28;20244;-56
2022/09/19 02:49:51;;;;;;;5.27;1.30;;;14.10;82.90;;;17.18;59.80;101237.94;5051384;28;20531;-54
2022/09/19 02:52:25;;;;;;;3.20;1.30;;;14.20;82.80;;;17.21;59.52;101234.06;5050973;28;20233;-54
2022/09/19 02:55:01;;;;;;;4.30;1.27;;;14.20;82.80;;;17.19;59.44;101234.25;5051824;28;20197;-54
2022/09/19 02:57:34;;;;;;;3.73;1.33;;;14.20;82.50;;;17.21;59.46;101240.19;5054918;28;20184;-55
2022/09/19 03:00:06;;;;;;;3.30;0.90;;;14.20;82.40;;;17.24;59.59;101237.13;5054856;28;20497;-54
2022/09/19 03:02:40;;;;;;;4.70;1.37;;;14.20;82.40;;;17.27;59.59;101231.38;5048789;28;20240;-56
2022/09/19 03:05:14;;;;;;;2.70;1.30;;;14.30;82.50;;;17.30;59.52;101235.47;5035003;28;20179;-53
2022/09/19 03:07:48;;;;;;;2.97;1.00;;;14.30;82.30;;;17.32;59.62;101234.25;5035333;28;20523;-55
2022/09/19 03:10:20;;;;;;;5.13;1.27;;;14.30;82.10;;;17.35;59.36;101239.13;5034876;28;20186;-56
2022/09/19 03:12:54;;;;;;;4.63;1.30;;;14.30;82.10;;;17.37;59.16;101237.13;5034782;28;20214;-55
2022/09/19 03:15:33;;;;;;;4.57;1.23;;;14.40;82.10;;;17.38;59.05;101232.59;5034807;28;20665;-55
2022/09/19 03:18:05;;;;;;;3.97;1.40;;;14.30;81.80;;;17.38;59.11;101241.41;5034793;28;20185;-56
2022/09/19 03:20:39;;;;;;;5.53;1.13;;;14.30;81.60;;;17.37;58.91;101238.94;5047732;28;20578;-53
2022/09/19 03:23:08;;;;;;;10.77;1.23;;;14.40;81.60;;;17.39;58.92;101239.56;5054422;28;20271;-56
2022/09/19 03:25:36;;;;;;;2.20;0.90;;;14.40;81.60;;;17.36;58.77;101238.13;5054769;28;20185;-53
2022/09/19 03:28:03;;;;;;;5.77;1.40;;;14.40;81.40;;;17.35;58.99;101241.81;5053701;28;20564;-56
2022/09/19 03:30:30;;;;;;;5.07;1.53;;;14.40;81.30;;;17.35;58.68;101249.78;5057362;28;20240;-54
2022/09/19 03:32:59;;;;;;;3.73;1.40;;;14.40;81.40;;;17.38;58.91;101252.03;5054270;28;20213;-55
2022/09/19 03:35:27;;;;;;;4.17;1.30;;;14.40;81.40;;;17.38;58.61;101249.38;5054327;28;20186;-56
2022/09/19 03:37:55;;;;;;;4.67;1.20;;;14.40;81.20;;;17.39;58.87;101243.06;5052168;28;20273;-54
2022/09/19 03:40:22;;;;;;;3.90;1.57;;;14.40;81.10;;;17.40;58.61;101250.00;5053887;28;20190;-55
2022/09/19 03:42:52;;;;;;;4.93;1.50;;;14.40;81.00;;;17.37;58.57;101257.59;5054013;28;20694;-54
2022/09/19 03:45:20;;;;;;;3.00;1.20;;;14.40;80.80;;;17.34;58.45;101264.13;5053967;28;20193;-57
2022/09/19 03:47:47;;;;;;;4.67;1.20;;;14.40;80.70;;;17.31;58.50;101261.88;5053787;28;20651;-55
2022/09/19 03:50:14;;;;;;;3.07;1.60;;;14.30;80.60;;;17.29;58.52;101266.59;5053963;28;20221;-56
2022/09/19 03:52:47;;;;;;;4.03;1.53;;;14.30;80.70;;;17.28;58.39;101259.63;5051544;28;20217;-57
2022/09/19 03:55:15;;;;;;;3.47;1.17;;;14.30;80.80;;;17.28;58.59;101270.25;5053818;28;20190;-58
2022/09/19 03:57:42;;;;;;;5.10;1.40;;;14.30;80.90;;;17.29;58.37;101266.59;5053757;28;20202;-56
2022/09/19 04:00:11;;;;;;;4.30;1.37;;;14.30;80.90;;;17.28;58.58;101267.59;5053715;28;20198;-56
2022/09/19 04:02:38;;;;;;;4.43;1.80;;;14.30;80.80;;;17.28;58.64;101275.59;5053068;28;20222;-53
2022/09/19 04:05:06;;;;;;;5.23;1.80;;;14.30;80.80;;;17.27;58.26;101273.97;5053504;28;20197;-55
2022/09/19 04:07:38;;;;;;;2.70;1.70;;;14.30;80.80;;;17.26;58.35;101277.63;5052288;28;20538;-52
2022/09/19 04:10:08;;;;;;;4.33;1.77;;;14.30;80.70;;;17.26;58.63;101274.16;5047184;28;20202;-56
2022/09/19 04:12:35;;;;;;;4.83;1.33;;;14.30;80.80;;;17.27;58.65;101283.78;5033044;28;20206;-56
2022/09/19 04:15:04;;;;;;;5.53;2.07;;;14.30;81.00;;;17.28;58.44;101280.91;5033496;28;20190;-55
2022/09/19 04:17:32;;;;;;;3.60;1.77;;;14.30;80.80;;;17.29;58.53;101289.72;5033237;28;20222;-55
2022/09/19 04:20:00;;;;;;;4.10;1.77;;;14.30;80.80;;;17.27;58.49;101289.94;5033024;28;20194;-55
2022/09/19 04:22:27;;;;;;;4.37;1.70;;;14.30;80.70;;;17.26;58.27;101285.63;5033054;28;20218;-53
2022/09/19 04:24:55;;;;;;;4.97;1.87;;;14.30;80.70;;;17.26;58.57;101288.28;5032393;28;20210;-56
2022/09/19 04:27:23;;;;;;;2.33;1.10;;;14.30;80.90;;;17.23;58.48;101293.22;5044274;28;20194;-54
2022/09/19 04:29:51;;;;;;;5.50;1.80;;;14.30;80.70;;;17.18;58.36;101296.47;5053042;28;20259;-56
2022/09/19 04:32:18;;;;;;;4.60;1.40;;;14.30;80.60;;;17.14;58.61;101295.22;5052483;28;20256;-54
2022/09/19 04:34:47;;;;;;;4.93;1.77;;;14.20;80.40;;;17.10;58.68;101299.31;5052810;28;20205;-55
2022/09/19 04:37:15;;;;;;;4.27;1.40;;;14.20;80.50;;;17.05;58.57;101303.59;5052888;28;20190;-55
2022/09/19 04:39:42;;;;;;;4.20;1.53;;;14.10;80.50;;;16.99;58.38;101299.94;5052722;28;20198;-54
2022/09/19 04:42:10;;;;;;;7.07;1.73;;;14.10;80.40;;;16.93;58.50;101306.03;5052176;28;20657;-55
2022/09/19 04:44:39;;;;;;;4.67;1.70;;;14.10;80.40;;;16.85;58.69;101312.38;5051183;28;20259;-54
2022/09/19 04:47:06;;;;;;;4.07;1.60;;;14.00;80.50;;;16.82;59.18;101312.78;5067882;28;20186;-53
2022/09/19 04:49:39;;;;;;;2.90;1.50;;;14.00;80.80;;;16.78;59.13;101311.53;5052908;28;20204;-53
2022/09/19 04:52:08;;;;;;;9.57;1.93;;;14.00;80.70;;;16.73;59.09;101314.00;5052017;28;20214;-53
2022/09/19 04:54:37;;;;;;;7.43;1.93;;;13.90;80.70;;;16.68;59.07;101320.94;5052552;28;20613;-55
2022/09/19 04:57:07;;;;;;;5.90;1.77;;;13.90;80.80;;;16.63;58.80;101324.19;5052407;28;20218;-55
2022/09/19 04:59:36;;;;;;;5.43;1.70;;;13.80;80.70;;;16.58;58.86;101323.13;5053084;28;20284;-54
2022/09/19 05:02:07;;;;;;;5.17;1.87;;;13.80;80.80;;;16.53;58.84;101323.72;5050639;28;20221;-56
2022/09/19 05:04:35;;;;;;;5.20;1.80;;;13.70;80.80;;;16.50;59.39;101333.91;5052555;28;20200;-55
2022/09/19 05:07:03;;;;;;;6.47;2.07;;;13.70;80.90;;;16.47;59.31;101329.00;5052279;28;20193;-54
2022/09/19 05:09:31;;;;;;;3.90;2.00;;;13.60;80.90;;;16.45;59.46;101336.34;5052291;28;20198;-56
2022/09/19 05:11:58;;;;;;;6.13;1.60;;;13.60;81.10;;;16.41;59.34;101340.41;5051807;28;20206;-57
2022/09/19 05:14:30;;;;;;;4.27;1.40;;;13.60;81.10;;;16.37;59.61;101331.19;5052082;28;20205;-57
2022/09/19 05:16:58;;;;;;;3.43;1.87;;;13.50;81.10;;;16.32;59.57;101337.09;5050859;28;20596;-56
2022/09/19 05:19:27;;;;;;;7.63;2.30;;;13.50;81.20;;;16.30;59.47;101346.28;5051876;28;20197;-54
2022/09/19 05:21:54;;;;;;;6.17;2.33;;;13.40;81.40;;;16.27;59.82;101345.66;5052151;28;20221;-54
2022/09/19 05:24:22;;;;;;;7.00;2.10;;;13.40;81.60;;;16.24;59.54;101340.75;5052359;28;20190;-53
2022/09/19 05:26:49;;;;;;;4.73;1.93;;;13.40;81.50;;;16.22;59.36;101341.94;5051918;28;20208;-53
2022/09/19 05:29:17;;;;;;;3.67;1.60;;;13.40;81.50;;;16.19;59.71;101345.81;5051697;28;20186;-56
2022/09/19 05:31:47;;;;;;;5.87;1.90;;;13.40;81.60;;;16.17;59.86;101350.50;5051486;28;20220;-57
2022/09/19 05:34:14;;;;;;;6.10;2.10;;;13.30;81.60;;;16.17;59.65;101352.34;5050250;28;20268;-56
2022/09/19 05:36:47;;;;;;;6.73;2.07;;;13.30;81.50;;;16.18;59.87;101349.50;5051778;28;20194;-56
2022/09/19 05:39:15;;;;;;;6.13;1.93;;;13.30;81.70;;;16.17;59.78;101353.16;5051673;28;20190;-54
2022/09/19 05:41:42;;;;;;;12.37;2.63;;;13.30;81.50;;;16.17;59.84;101355.81;5051638;28;20740;-56
2022/09/19 05:44:09;;;;;;;6.63;2.33;;;13.30;81.70;;;16.17;59.60;101353.16;5051590;28;20288;-55
2022/09/19 05:46:36;;;;;;;5.77;2.30;;;13.30;81.50;;;16.16;59.61;101356.81;5051856;28;20194;-54
2022/09/19 05:49:05;;;;;;;8.50;3.00;;;13.30;81.50;;;16.15;59.75;101357.84;5051196;28;20615;-55
2022/09/19 05:51:32;;;;;;;10.47;2.63;;;13.30;81.50;;;16.14;59.49;101361.50;5049978;28;20197;-57
2022/09/19 05:54:01;;;;;;;8.00;2.97;;;13.30;81.50;;;16.13;59.67;101361.72;5052106;28;20364;-55
2022/09/19 05:56:29;;;;;;;9.87;3.87;;;13.30;81.50;;;16.13;59.55;101365.22;5051579;28;20227;-56
2022/09/19 05:58:57;;;;;;;7.37;2.33;;;13.30;81.50;;;16.12;59.84;101373.34;5051304;28;20198;-54
2022/09/19 06:01:24;;;;;;;7.57;2.60;;;13.20;81.40;;;16.11;59.47;101372.56;5050486;28;20263;-57
2022/09/19 06:03:52;;;;;;;10.83;2.63;;;13.20;81.40;;;16.10;59.83;101376.22;5049920;28;20225;-54
2022/09/19 06:06:19;;;;;;;7.10;2.40;;;13.20;81.50;;;16.09;59.58;101374.56;5050995;28;20243;-53
2022/09/19 06:08:55;;;;;;;7.53;2.27;;;13.20;81.40;;;16.08;59.43;101364.97;5050162;28;20252;-56
2022/09/19 06:11:25;;;;;;;9.77;2.17;;;13.20;81.60;;;16.08;59.58;101378.25;5050935;28;20189;-56
2022/09/19 06:16:39;;;;;;;7.30;1.93;;;13.20;81.70;;;16.10;59.72;101378.88;5050970;28;20190;-55
2022/09/19 06:19:07;;;;;;;8.57;2.57;;;13.20;81.60;;;16.14;59.58;101379.31;5049553;28;20225;-56
2022/09/19 06:21:34;;;;;;;7.17;2.13;;;13.20;81.60;;;16.18;59.66;101389.34;5049102;28;20194;-57
2022/09/19 06:24:02;;;;;;;8.03;3.10;;;13.20;81.70;;;16.19;59.59;101375.03;5050746;28;20206;-57
2022/09/19 06:26:31;;;;;;;6.30;2.23;;;13.30;81.70;;;16.24;59.76;101387.72;5049438;28;20197;-56
2022/09/19 06:28:58;;;;;;;5.27;2.93;;;13.30;81.70;;;16.30;59.74;101386.13;5050741;28;20205;-55
2022/09/19 06:31:27;;;;;;;9.07;2.67;;;13.30;81.80;;;16.35;59.43;101386.38;5054267;28;20211;-57
2022/09/19 06:33:54;;;;;;;9.57;2.43;;;13.40;81.80;;;16.38;59.54;101392.09;5056049;28;20628;-57
2022/09/19 06:36:22;;;;;;;6.73;2.30;;;13.40;81.70;;;16.41;59.41;101385.56;5056581;28;20186;-54
2022/09/19 06:38:49;;;;;;;9.97;3.10;;;13.40;81.60;;;16.46;59.35;101385.81;5056564;28;20202;-54
2022/09/19 06:41:17;;;;;;;9.47;2.37;;;13.50;81.70;;;16.50;59.70;101389.69;5054888;28;20651;-54
2022/09/19 06:43:46;;;;;;;6.70;2.70;;;13.50;81.90;;;16.56;59.37;101387.13;5038514;28;20288;-55
2022/09/19 06:46:14;;;;;;;8.17;2.90;;;13.60;81.80;;;16.64;59.32;101400.25;5035784;28;20586;-56
2022/09/19 06:48:42;;;;;;;10.37;2.90;;;13.60;81.90;;;16.72;59.48;101399.25;5035904;28;20199;-55
2022/09/19 06:51:09;;;;;;;9.57;3.90;;;13.70;81.90;;;16.81;59.58;101400.72;5034452;28;20640;-54
2022/09/19 06:53:37;;;;;;;10.77;3.53;;;13.80;82.20;;;17.07;59.74;101405.34;5034968;28;20757;-54
2022/09/19 06:56:04;;;;;;;8.60;3.00;;;13.90;82.60;;;17.46;59.29;101400.91;5035263;28;20182;-52
2022/09/19 06:58:32;;;;;;;10.43;2.93;;;14.10;83.20;;;17.97;59.06;101406.44;5035072;28;20213;-53
2022/09/19 07:01:01;;;;;;;12.10;3.30;;;14.40;83.10;;;18.53;58.15;101409.47;5050342;28;20226;-54
2022/09/19 07:03:29;;;;;;;7.40;3.07;;;14.80;82.30;;;19.15;57.42;101410.63;5053995;28;20245;-56
2022/09/19 07:05:59;;;;;;;9.10;3.13;;;15.20;81.40;;;19.76;56.38;101411.66;5052041;28;20221;-53
2022/09/19 07:08:27;;;;;;;9.07;3.20;;;15.70;80.20;;;20.47;54.37;101413.88;5054862;28;20178;-54
2022/09/19 07:10:56;;;;;;;7.20;2.60;;;16.30;78.90;;;21.15;52.59;101415.34;5054085;28;20248;-56
2022/09/19 07:13:23;;;;;;;10.33;2.60;;;16.80;76.70;;;21.81;51.62;101422.38;5054409;28;20233;-56
2022/09/19 07:16:00;;;;;;;8.33;2.13;;;17.40;75.70;;;22.50;49.51;101421.56;5053049;28;20274;-55
2022/09/19 07:18:29;;;;;;;6.23;2.93;;;18.00;73.30;;;23.12;47.69;101419.88;5034093;28;20182;-54
2022/09/19 07:21:00;;;;;;;11.63;4.30;;;18.50;71.20;;;23.78;45.80;101422.69;5033802;28;20252;-57
2022/09/19 07:23:27;;;;;;;11.07;3.30;;;19.00;69.40;;;24.43;44.76;101414.00;5033609;28;20219;-55
2022/09/19 07:25:55;;;;;;;9.80;3.47;;;19.50;69.00;;;25.07;43.78;101418.56;5032406;28;20198;-54
2022/09/19 07:28:24;;;;;;;10.43;3.80;;;20.00;66.50;;;25.71;42.35;101424.03;5032644;28;20209;-58
2022/09/19 07:30:51;;;;;;;7.07;2.83;;;20.50;65.30;;;26.35;40.60;101431.00;5033736;28;20217;-56
2022/09/19 07:33:22;;;;;;;9.43;3.07;;;21.00;63.30;;;26.94;39.50;101428.00;5033799;28;20213;-57
2022/09/19 07:35:53;;;;;;;7.07;2.93;;;21.40;61.00;;;27.27;38.73;101419.44;5031979;28;20194;-56
2022/09/19 07:38:23;;;;;;;7.30;2.90;;;21.80;59.40;;;27.34;38.06;101428.09;5032296;28;20241;-55
2022/09/19 07:40:51;;;;;;;9.53;3.20;;;22.10;58.40;;;27.49;37.35;101430.84;5032052;28;20551;-55
2022/09/19 07:43:19;;;;;;;7.10;3.07;;;22.30;57.10;;;27.59;36.79;101425.47;5032100;28;20214;-56
2022/09/19 07:45:49;;;;;;;8.77;3.63;;;22.40;56.50;;;27.36;36.86;101425.97;5031927;28;20578;-55
2022/09/19 07:48:18;;;;;;;10.70;3.20;;;22.40;56.20;;;26.98;36.83;101437.22;5032576;28;20191;-57
2022/09/19 07:50:47;;;;;;;12.47;3.10;;;22.30;55.90;;;26.62;37.68;101442.47;5034360;28;20615;-56
2022/09/19 07:53:23;;;;;;;14.10;3.37;;;22.10;56.20;;;26.50;37.95;101441.06;5032432;28;20268;-58
2022/09/19 07:55:52;;;;;;;10.80;3.23;;;21.90;56.00;;;26.58;37.84;101446.75;5033637;28;20624;-54
2022/09/19 07:58:22;;;;;;;7.97;2.90;;;21.80;56.80;;;26.69;37.67;101444.94;5033146;28;20718;-55
2022/09/19 08:00:50;;;;;;;8.50;3.23;;;21.80;57.10;;;26.58;38.20;101451.34;5032982;28;20183;-57
2022/09/19 08:03:20;;;;;;;8.33;2.37;;;21.80;57.30;;;26.45;37.95;101462.63;5033351;28;20218;-56
2022/09/19 08:05:50;;;;;;;7.37;2.93;;;21.80;56.70;;;26.42;38.16;101452.34;5033626;28;20538;-57
2022/09/19 08:08:21;;;;;;;9.93;3.03;;;21.80;56.90;;;26.51;37.88;101457.00;5035072;28;20527;-55
2022/09/19 08:10:50;;;;;;;8.60;3.67;;;21.80;56.70;;;26.80;37.87;101455.53;5034056;28;20179;-56
2022/09/19 08:13:18;;;;;;;7.00;2.87;;;21.80;57.00;;;27.38;36.75;101462.50;5033773;28;20286;-56
2022/09/19 08:15:48;;;;;;;7.70;2.57;;;22.00;57.30;;;28.07;36.35;101454.69;5033962;28;20198;-57
2022/09/19 08:18:18;;;;;;;6.73;2.77;;;22.40;57.40;;;28.78;35.16;101458.03;5033657;28;20205;-56
2022/09/19 08:20:48;;;;;;;7.27;3.27;;;22.80;56.10;;;29.46;34.29;101471.78;5034056;28;20209;-58
2022/09/19 08:23:18;;;;;;;7.97;3.20;;;23.40;55.10;;;29.97;32.81;101464.06;5033256;28;20753;-54
2022/09/19 08:25:47;;;;;;;6.10;2.67;;;23.90;53.60;;;30.36;32.29;101470.22;5051488;28;20189;-57
2022/09/19 08:28:17;;;;;;;9.23;2.60;;;24.50;52.40;;;30.77;31.35;101476.00;5052723;28;20562;-57
2022/09/19 08:30:47;;;;;;;6.90;2.47;;;24.90;51.20;;;31.32;31.35;101466.31;5052547;28;20421;-56
2022/09/19 08:33:15;;;;;;;8.93;3.10;;;25.40;50.50;;;31.87;30.17;101467.34;5051798;28;20214;-55
2022/09/19 08:35:43;;;;;;;5.47;2.93;;;25.80;49.50;;;32.44;29.48;101464.13;5052920;28;20198;-54
2022/09/19 08:38:13;;;;;;;8.77;3.60;;;26.30;48.50;;;32.96;28.69;101462.00;5052779;28;20581;-54
2022/09/19 08:41:00;;;;;;;8.83;3.17;;;26.70;47.10;;;33.56;27.84;101470.75;5050840;28;20209;-57
2022/09/19 08:43:47;;;;;;;6.07;3.07;;;27.20;45.30;;;33.74;27.27;101478.75;5032582;28;20256;-56
2022/09/19 08:46:22;;;;;;;6.53;3.30;;;27.60;43.60;;;33.84;26.74;101474.97;5032808;28;20550;-56
2022/09/19 08:49:00;;;;;;;11.23;3.37;;;27.80;43.00;;;33.78;26.61;101478.97;5032516;28;20694;-55
2022/09/19 08:51:34;;;;;;;5.07;2.73;;;28.00;41.50;;;33.92;26.55;101479.69;5032053;28;20230;-57
2022/09/19 08:54:12;;;;;;;8.43;3.27;;;28.20;41.60;;;34.35;26.34;101480.72;5031649;28;20189;-59
2022/09/19 08:56:43;;;;;;;5.40;2.53;;;28.40;41.20;;;34.66;25.49;101478.78;5032288;28;20218;-55
2022/09/19 08:59:16;;;;;;;8.30;3.40;;;28.60;40.50;;;34.90;25.42;101483.03;5033502;28;20340;-57
2022/09/19 09:01:44;;;;;;;7.73;3.00;;;28.80;39.80;;;35.13;24.67;101479.06;5046932;28;20205;-56
2022/09/19 09:04:27;;;;;;;7.65;3.83;;;29.00;39.30;;;35.40;24.24;101486.94;5051947;28;20217;-56
2022/09/19 09:07:17;;;;;;;26.10;23.17;;;29.20;38.30;;;35.20;24.63;101482.13;5051964;28;20182;-55
2022/09/19 09:10:07;;;;;;;6.20;3.97;;;29.30;39.00;;;35.17;24.42;101483.56;5051801;28;20190;-56
2022/09/19 09:12:53;;;;;;;10.20;3.70;;;29.40;38.10;;;34.73;24.53;101492.00;5051496;28;20227;-56
2022/09/19 09:15:29;;;;;;;8.30;3.30;;;29.30;37.60;;;34.37;25.59;101483.97;5049877;28;20197;-56
2022/09/19 09:18:47;;;;;;;8.30;3.37;;;29.10;38.00;;;33.50;25.80;101480.16;5032456;28;20193;-59
2022/09/19 09:21:27;;;;;;;11.03;3.80;;;28.80;37.80;;;32.81;26.64;101475.97;5027085;28;20655;-55
2022/09/19 09:24:01;;;;;;;5.40;2.47;;;28.40;38.90;;;32.34;26.87;101477.16;5032279;28;20237;-54
2022/09/19 09:26:56;;;;;;;7.20;2.93;;;28.00;39.60;;;31.38;28.22;101465.91;5032368;28;20240;-56
2022/09/19 09:29:30;;;;;;;10.57;3.97;;;27.50;40.20;;;30.46;29.83;101481.00;5031691;28;20336;-54
2022/09/19 09:32:13;;;;;;;8.23;3.67;;;26.90;41.10;;;29.52;30.38;101475.28;5031909;28;20214;-56
2022/09/19 09:34:49;;;;;;;7.37;3.33;;;26.20;42.20;;;28.65;31.86;101468.66;5050039;28;20212;-55
2022/09/19 09:37:23;;;;;;;8.10;3.80;;;25.50;43.40;;;28.01;32.95;101472.03;5050385;28;20515;-54
2022/09/19 09:40:09;;;;;;;9.93;3.20;;;24.90;45.00;;;27.45;34.13;101468.47;5051587;28;20217;-53
2022/09/19 09:42:52;;;;;;;9.47;3.30;;;24.40;46.30;;;26.83;34.67;101470.41;5048821;28;20662;-57
2022/09/19 09:45:30;;;;;;;11.70;3.90;;;23.80;47.60;;;26.35;35.61;101467.97;5050933;28;20656;-59
2022/09/19 09:48:14;;;;;;;8.33;3.43;;;23.40;49.00;;;25.95;36.84;101474.69;5050685;28;20177;-57
2022/09/19 09:51:08;;;;;;;8.13;3.60;;;23.00;50.30;;;25.70;36.82;101476.38;5046697;28;20231;-57
2022/09/19 09:53:57;;;;;;;10.23;4.40;;;22.60;51.50;;;25.82;37.15;101482.38;5044470;28;20217;-56
2022/09/19 09:56:35;;;;;;;10.80;3.77;;;22.40;52.20;;;25.97;37.65;101475.25;5050251;28;20214;-54
2022/09/19 10:05:25;;;;;;;13.63;3.50;;;22.10;53.00;;;25.05;38.32;101474.59;5053497;28;20210;-58
2022/09/19 10:08:06;;;;;;;11.87;2.87;;;21.90;53.00;;;24.60;38.28;101484.75;5052789;28;20242;-56
2022/09/19 10:10:38;;;;;;;7.30;2.30;;;21.60;52.50;;;24.18;38.15;101469.09;5043762;28;20198;-57
2022/09/19 10:13:25;;;;;;;5.83;2.07;;;21.30;51.70;;;23.72;39.17;101487.41;5054790;28;20550;-58
2022/09/19 10:16:02;;;;;;;3.93;1.57;;;21.00;52.60;;;23.25;39.13;101482.19;5054273;28;20225;-56
2022/09/19 10:18:43;;;;;;;2.47;1.77;;;20.50;52.40;;;22.80;40.28;101482.09;5054937;28;20189;-55
2022/09/19 10:21:12;;;;;;;2.73;1.87;;;20.20;53.30;;;22.53;40.89;101480.97;5053425;28;20677;-56
2022/09/19 10:23:45;;;;;;;2.43;1.50;;;19.90;54.90;;;22.31;41.61;101482.59;5051235;28;20218;-55
2022/09/19 10:26:15;;;;;;;5.33;1.93;;;19.60;55.20;;;22.12;42.11;101484.56;5051358;28;20189;-56
2022/09/19 10:28:51;;;;;;;2.40;1.33;;;19.40;56.30;;;21.99;42.36;101475.91;5054060;28;20225;-57
2022/09/19 10:31:32;;;;;;;3.73;2.13;;;19.10;56.70;;;21.99;43.53;101478.59;5052126;28;20601;-54
2022/09/19 10:34:04;;;;;;;3.50;2.07;;;19.00;58.40;;;22.12;43.36;101476.53;5049206;28;20237;-54
2022/09/19 10:36:44;;;;;;;4.77;1.83;;;18.90;59.20;;;22.27;43.38;101476.06;5053015;28;20212;-56
2022/09/19 10:39:16;;;;;;;4.57;2.50;;;18.90;59.30;;;22.65;43.03;101473.75;5052781;28;20193;-58
2022/09/19 10:41:46;;;;;;;6.87;2.73;;;18.90;59.90;;;23.08;42.86;101483.22;5050707;28;20627;-55
2022/09/19 10:44:19;;;;;;;6.67;2.53;;;19.00;60.80;;;23.39;42.49;101480.09;5052745;28;20264;-56
2022/09/19 10:46:54;;;;;;;6.27;2.70;;;19.20;61.30;;;23.48;42.32;101484.00;5053891;28;20575;-56
2022/09/19 10:49:26;;;;;;;4.67;2.13;;;19.30;61.20;;;23.27;41.95;101488.16;5045574;28;20209;-55